Time;durP1;ratioP1;P1;durP2;ratioP2;P2;SDS_P1;SDS_P2;PMS_P1;PMS_P2;Temp;Humidity;BMP_temperature;BMP_pressure;BME280_temperature;BME280_humidity;BME280_pressure;Samples;Min_cycle;Max_cycle;Signal;HPM_P1;HPM_P2
2021/05/29 00:08:19;;;;;;;1.95;1.60;;;19.90;55.40;;;;;;20894566;22;20043;-22
2021/05/29 00:18:20;;;;;;;3.42;1.75;;;19.90;55.50;;;;;;20760388;28;20034;-22
2021/05/29 00:28:20;;;;;;;2.50;1.65;;;19.80;55.50;;;;;;20752430;28;20505;-22
2021/05/29 00:38:21;;;;;;;5.78;1.77;;;19.80;55.50;;;;;;20737180;28;20037;-22
2021/05/29 00:48:22;;;;;;;4.60;1.90;;;19.80;55.50;;;;;;20732618;28;20480;-22
2021/05/29 00:58:24;;;;;;;4.05;2.03;;;19.80;55.90;;;;;;20725001;28;20029;-21
2021/05/29 01:08:25;;;;;;;3.95;1.88;;;19.80;55.40;;;;;;20721547;28;20080;-21
2021/05/29 01:18:26;;;;;;;3.05;2.10;;;19.80;55.50;;;;;;20775468;28;20105;-21
2021/05/29 01:28:29;;;;;;;3.97;2.22;;;19.80;55.50;;;;;;20758183;28;20081;-21
2021/05/29 01:38:29;;;;;;;4.57;2.22;;;19.70;55.40;;;;;;20770679;28;20025;-22
2021/05/29 01:48:34;;;;;;;2.83;1.88;;;19.70;55.40;;;;;;20768137;28;20046;-21
2021/05/29 01:58:37;;;;;;;2.70;2.22;;;19.70;55.40;;;;;;20757801;28;20040;-22
2021/05/29 02:08:38;;;;;;;4.60;2.17;;;19.70;55.40;;;;;;20762809;28;20034;-22
2021/05/29 02:18:40;;;;;;;3.53;2.38;;;19.70;55.40;;;;;;20750249;28;20072;-20
2021/05/29 02:28:43;;;;;;;2.63;1.75;;;19.60;55.40;;;;;;20747780;28;20675;-22
2021/05/29 02:38:44;;;;;;;3.28;2.20;;;19.70;55.40;;;;;;20759229;28;20041;-22
2021/05/29 02:48:45;;;;;;;4.97;2.45;;;19.60;55.30;;;;;;20752239;28;20030;-20
2021/05/29 02:58:46;;;;;;;3.42;1.95;;;19.60;55.20;;;;;;20745453;28;20108;-22
2021/05/29 03:08:46;;;;;;;2.97;2.70;;;19.60;55.30;;;;;;20745927;28;20072;-22
2021/05/29 03:18:47;;;;;;;2.97;1.95;;;19.60;55.30;;;;;;20745847;28;20443;-22
2021/05/29 03:28:47;;;;;;;4.07;2.53;;;19.60;55.30;;;;;;20750225;28;20402;-23
2021/05/29 03:38:48;;;;;;;4.75;2.55;;;19.50;55.20;;;;;;20745889;28;20104;-21
2021/05/29 03:48:48;;;;;;;3.05;1.90;;;19.50;55.20;;;;;;20755516;28;20046;-22
2021/05/29 03:58:49;;;;;;;3.45;2.33;;;19.40;55.10;;;;;;20742589;28;20493;-22
2021/05/29 04:08:50;;;;;;;3.30;2.10;;;19.50;55.20;;;;;;20752888;28;20048;-21
2021/05/29 04:18:51;;;;;;;5.93;2.47;;;19.50;55.10;;;;;;20740428;28;20092;-21
2021/05/29 04:28:52;;;;;;;7.07;2.55;;;19.40;55.00;;;;;;20718737;28;20075;-22
2021/05/29 04:38:52;;;;;;;2.50;2.10;;;19.40;55.00;;;;;;20755629;28;20057;-22
2021/05/29 04:48:53;;;;;;;5.30;2.07;;;19.40;55.00;;;;;;20761531;28;20033;-22
2021/05/29 04:58:53;;;;;;;3.97;2.83;;;19.40;54.90;;;;;;20765965;28;20021;-22
2021/05/29 05:08:54;;;;;;;3.83;2.25;;;19.40;54.90;;;;;;20789342;28;20128;-22
2021/05/29 05:18:55;;;;;;;3.97;1.98;;;19.40;54.80;;;;;;20792474;28;20423;-21
2021/05/29 05:28:55;;;;;;;3.33;1.97;;;19.40;54.80;;;;;;20783764;28;20115;-22
2021/05/29 05:38:56;;;;;;;5.55;2.25;;;19.40;54.80;;;;;;20785307;28;20034;-22
2021/05/29 05:48:56;;;;;;;2.88;2.35;;;19.40;54.80;;;;;;20776003;28;20492;-21
2021/05/29 05:58:58;;;;;;;3.80;3.17;;;19.40;54.70;;;;;;20760884;28;21559;-21
2021/05/29 06:08:58;;;;;;;3.28;2.40;;;19.40;54.70;;;;;;20827870;23;20692;-21
2021/05/29 06:29:11;;;;;;;3.10;2.25;;;19.80;53.30;;;;;;20898420;28;20068;-22
2021/05/29 06:39:12;;;;;;;3.85;2.65;;;20.50;52.00;;;;;;20884199;28;20193;-21
2021/05/29 06:49:15;;;;;;;3.25;2.70;;;21.10;50.60;;;;;;20899743;28;20147;-21
2021/05/29 06:59:16;;;;;;;3.53;2.08;;;21.80;49.50;;;;;;20892235;28;20031;-21
2021/05/29 07:09:19;;;;;;;4.97;2.00;;;22.30;48.50;;;;;;20884426;28;20033;-21
2021/05/29 07:19:20;;;;;;;3.80;2.17;;;22.60;47.90;;;;;;20890958;28;20113;-22
2021/05/29 07:29:21;;;;;;;3.67;1.92;;;22.60;48.10;;;;;;20850944;28;20022;-22
2021/05/29 07:39:21;;;;;;;10.77;2.85;;;22.50;48.20;;;;;;20857152;28;20036;-22
2021/05/29 07:49:22;;;;;;;2.83;2.08;;;22.20;48.80;;;;;;20892794;28;20056;-22
2021/05/29 07:59:23;;;;;;;6.10;2.73;;;22.20;49.00;;;;;;20866399;28;20021;-22
2021/05/29 08:09:24;;;;;;;7.03;3.00;;;22.00;49.50;;;;;;20862077;28;20486;-22
2021/05/29 08:19:24;;;;;;;5.68;2.85;;;21.90;49.50;;;;;;20864935;28;20113;-21
2021/05/29 08:29:25;;;;;;;5.55;2.50;;;21.80;50.00;;;;;;20866000;28;20017;-20
2021/05/29 08:39:25;;;;;;;11.15;2.72;;;21.80;50.20;;;;;;20833396;28;20026;-21
2021/05/29 08:49:26;;;;;;;12.00;3.22;;;21.90;50.40;;;;;;20855175;28;20026;-21
2021/05/29 08:59:26;;;;;;;9.33;3.20;;;21.80;50.50;;;;;;20870877;28;20661;-21
2021/05/29 09:09:27;;;;;;;7.40;3.03;;;21.80;50.30;;;;;;20863582;28;20499;-21
2021/05/29 09:19:28;;;;;;;9.23;3.27;;;21.70;50.60;;;;;;20854935;28;20033;-20
2021/05/29 09:29:30;;;;;;;5.00;2.80;;;21.70;50.60;;;;;;20857092;28;20028;-20
2021/05/29 09:39:31;;;;;;;7.85;3.53;;;21.70;50.70;;;;;;20859924;28;20099;-20
2021/05/29 09:49:49;;;;;;;10.55;3.35;;;21.60;50.70;;;;;;20868174;28;20025;-21
2021/05/29 10:00:08;;;;;;;20.17;4.93;;;21.70;50.70;;;;;;20826457;28;20544;-21
2021/05/29 10:10:09;;;;;;;10.95;5.15;;;21.60;51.50;;;;;;20843157;28;20035;-22
2021/05/29 10:20:10;;;;;;;21.60;5.72;;;21.50;51.40;;;;;;20873764;28;20053;-22
2021/05/29 10:30:12;;;;;;;23.00;5.60;;;21.40;51.50;;;;;;20869586;28;20154;-21
2021/05/29 10:40:15;;;;;;;9.65;4.90;;;21.40;51.20;;;;;;20852161;28;20056;-21
2021/05/29 10:50:16;;;;;;;10.10;4.30;;;21.30;51.40;;;;;;20863827;28;20040;-21
2021/05/29 11:00:35;;;;;;;14.02;4.40;;;21.30;51.40;;;;;;20867326;28;20444;-21
2021/05/29 11:10:35;;;;;;;;;;;21.20;51.50;;;;;;20885759;28;20075;-21
2021/05/29 11:21:02;;;;;;;15.63;5.35;;;21.20;51.30;;;;;;20883824;28;20048;-22
2021/05/29 11:31:03;;;;;;;11.80;5.55;;;21.30;51.00;;;;;;20893488;28;20029;-21
2021/05/29 11:41:11;;;;;;;17.40;4.65;;;21.40;50.90;;;;;;20865284;28;20109;-22
2021/05/29 11:51:14;;;;;;;12.18;5.65;;;21.60;50.70;;;;;;20856019;28;20037;-22
2021/05/29 12:01:17;;;;;;;18.63;3.90;;;21.50;50.90;;;;;;20874872;28;20127;-22
2021/05/29 12:11:17;;;;;;;8.10;4.22;;;21.60;50.90;;;;;;20985628;22;20049;-22
2021/05/29 12:21:18;;;;;;;14.45;4.03;;;21.50;51.30;;;;;;20740470;28;20108;-21
2021/05/29 12:31:21;;;;;;;9.23;4.40;;;21.40;51.40;;;;;;20739133;28;20068;-21
2021/05/29 12:41:22;;;;;;;6.93;3.25;;;21.40;51.40;;;;;;20741032;28;20046;-22
2021/05/29 12:51:43;;;;;;;6.45;3.63;;;21.40;51.40;;;;;;20756542;28;20444;-21
2021/05/29 13:02:04;;;;;;;7.20;2.90;;;21.40;51.30;;;;;;20739670;28;20057;-21
2021/05/29 13:12:13;;;;;;;8.68;4.05;;;21.40;51.50;;;;;;20740061;28;20492;-21
2021/05/29 13:22:24;;;;;;;7.25;3.38;;;21.20;51.80;;;;;;20750575;28;20038;-21
2021/05/29 13:32:26;;;;;;;6.55;3.40;;;21.10;52.00;;;;;;20753614;28;20072;-22
2021/05/29 13:42:28;;;;;;;5.95;3.33;;;21.00;52.50;;;;;;20753981;28;20042;-22
2021/05/29 13:52:28;;;;;;;7.03;3.22;;;21.10;52.40;;;;;;20750435;28;20112;-21
2021/05/29 14:02:29;;;;;;;7.07;3.42;;;21.10;52.40;;;;;;20755079;28;20045;-22
2021/05/29 14:12:29;;;;;;;7.73;3.83;;;20.80;52.70;;;;;;20753522;28;20033;-21
2021/05/29 14:22:30;;;;;;;10.47;3.60;;;20.70;52.90;;;;;;20751514;28;20468;-22
2021/05/29 14:32:30;;;;;;;8.30;3.97;;;20.60;53.10;;;;;;20750983;28;20897;-22
2021/05/29 14:42:33;;;;;;;7.03;3.83;;;20.60;53.10;;;;;;20746808;28;20481;-22
2021/05/29 14:52:34;;;;;;;13.95;4.95;;;20.50;53.00;;;;;;20746875;28;20034;-21
2021/05/29 15:02:35;;;;;;;9.73;3.88;;;20.50;53.10;;;;;;20747780;28;20088;-21
2021/05/29 15:12:36;;;;;;;8.15;3.92;;;20.50;53.10;;;;;;20745632;28;20033;-21
2021/05/29 15:22:37;;;;;;;9.23;3.90;;;20.50;53.20;;;;;;20745544;28;20030;-21
2021/05/29 15:32:37;;;;;;;8.60;4.35;;;20.40;53.20;;;;;;20743125;28;21117;-21
2021/05/29 15:42:38;;;;;;;8.23;3.80;;;20.40;53.40;;;;;;20743580;28;20057;-21
2021/05/29 15:52:39;;;;;;;6.25;3.42;;;20.40;53.40;;;;;;20743503;28;20473;-21
2021/05/29 16:02:40;;;;;;;6.93;3.42;;;20.40;53.30;;;;;;20751293;28;20029;-22
2021/05/29 16:12:43;;;;;;;9.77;3.25;;;20.40;53.40;;;;;;20746198;28;20493;-22
2021/05/29 16:22:43;;;;;;;7.00;3.40;;;20.50;53.50;;;;;;20762472;28;20060;-22
2021/05/29 16:33:01;;;;;;;7.70;3.30;;;20.50;53.40;;;;;;20740551;28;20030;-22
2021/05/29 16:43:02;;;;;;;5.10;3.00;;;20.50;53.40;;;;;;20740771;28;20037;-22
2021/05/29 16:53:04;;;;;;;4.88;3.28;;;20.50;53.50;;;;;;20747468;28;20052;-23
2021/05/29 17:03:04;;;;;;;4.95;2.80;;;20.50;53.60;;;;;;20741917;28;20109;-22
2021/05/29 17:13:05;;;;;;;5.40;3.13;;;20.50;53.70;;;;;;20720850;28;20073;-22
2021/05/29 17:23:06;;;;;;;8.47;4.10;;;20.50;53.70;;;;;;20742484;28;20059;-22
2021/05/29 17:33:11;;;;;;;12.73;4.75;;;20.60;53.60;;;;;;20753238;28;20480;-22
2021/05/29 17:43:12;;;;;;;7.68;4.03;;;20.60;53.50;;;;;;20749893;28;20556;-22
2021/05/29 17:53:12;;;;;;;3.35;2.85;;;20.50;53.70;;;;;;20749102;28;20105;-22
2021/05/29 18:03:13;;;;;;;5.03;3.20;;;20.40;53.90;;;;;;20745453;28;20030;-22
2021/05/29 18:13:14;;;;;;;7.05;3.22;;;20.40;53.70;;;;;;20746869;28;20041;-22
2021/05/29 18:23:15;;;;;;;6.10;3.22;;;20.30;53.60;;;;;;20751079;28;20021;-22
2021/05/29 18:33:16;;;;;;;4.13;2.72;;;20.30;53.70;;;;;;20753126;28;20040;-21
2021/05/29 18:43:17;;;;;;;7.72;3.58;;;20.30;53.80;;;;;;20752007;28;20552;-22
2021/05/29 18:53:17;;;;;;;5.13;3.10;;;20.20;53.80;;;;;;20745510;28;20460;-21
2021/05/29 19:03:20;;;;;;;4.20;3.25;;;20.20;53.80;;;;;;20744661;28;20029;-21
2021/05/29 19:13:20;;;;;;;3.22;2.65;;;20.20;53.80;;;;;;20744286;28;20079;-21
2021/05/29 19:23:30;;;;;;;4.88;2.97;;;20.20;53.80;;;;;;20747771;28;20026;-21
2021/05/29 20:35:12;;;;;;;9.02;4.20;;;20.00;54.20;;;;;;20755103;28;20048;-22
2021/05/29 20:45:25;;;;;;;11.10;4.45;;;20.00;54.30;;;;;;20760096;28;20025;-22
2021/05/29 20:55:25;;;;;;;7.38;4.03;;;20.00;54.30;;;;;;20757260;28;20057;-23
2021/05/29 21:05:26;;;;;;;6.30;3.57;;;19.90;54.30;;;;;;20745507;28;20030;-22
2021/05/29 21:15:32;;;;;;;9.70;3.45;;;20.00;54.40;;;;;;20746722;28;21105;-22
2021/05/29 21:25:33;;;;;;;15.82;4.18;;;19.90;54.40;;;;;;20750046;28;20381;-22
2021/05/29 21:35:34;;;;;;;5.63;3.33;;;19.90;54.40;;;;;;20747736;28;20029;-22
2021/05/29 21:55:35;;;;;;;5.55;3.40;;;19.90;54.40;;;;;;20789832;28;20041;-22
2021/05/29 22:05:37;;;;;;;11.82;4.40;;;19.80;54.40;;;;;;20777300;28;20041;-23
2021/05/29 22:36:21;;;;;;;7.03;4.65;;;19.80;53.70;;;;;;20783550;28;20117;-21
2021/05/29 22:46:21;;;;;;;12.93;5.78;;;19.70;53.40;;;;;;20792102;28;20033;-23
2021/05/29 22:56:22;;;;;;;8.33;4.93;;;19.70;53.40;;;;;;20756845;28;20030;-22
2021/05/29 23:06:23;;;;;;;12.87;4.87;;;19.60;53.40;;;;;;20760800;28;21316;-23
2021/05/29 23:16:23;;;;;;;12.27;6.63;;;19.60;53.70;;;;;;20747589;28;20472;-21
2021/05/29 23:26:24;;;;;;;12.68;6.35;;;19.70;55.40;;;;;;20744839;28;20037;-22
2021/05/29 23:36:25;;;;;;;10.23;5.30;;;19.70;55.80;;;;;;20745952;28;20458;-22
2021/05/29 23:46:25;;;;;;;10.45;6.25;;;19.70;55.60;;;;;;20755346;28;20026;-22
2021/05/29 23:56:28;;;;;;;8.15;5.40;;;19.70;55.80;;;;;;20743032;28;20167;-22
